sensor_id;sensor_type;location;lat;lon;timestamp;pressure;altitude;pressure_sealevel;temperature;humidity
49102;BME280;34913;47.520;19.186;2022-08-02T00:01:43;99782.09;;;19.71;73.04
49102;BME280;34913;47.520;19.186;2022-08-02T00:04:08;99778.69;;;19.62;73.07
49102;BME280;34913;47.520;19.186;2022-08-02T00:06:34;99782.47;;;19.68;73.43
49102;BME280;34913;47.520;19.186;2022-08-02T00:09:01;99760.03;;;19.46;73.44
49102;BME280;34913;47.520;19.186;2022-08-02T00:11:26;99781.81;;;19.51;73.75
49102;BME280;34913;47.520;19.186;2022-08-02T00:13:52;99781.38;;;19.47;73.56
49102;BME280;34913;47.520;19.186;2022-08-02T00:16:17;99786.38;;;19.50;73.84
49102;BME280;34913;47.520;19.186;2022-08-02T00:18:43;99784.25;;;19.46;74.07
49102;BME280;34913;47.520;19.186;2022-08-02T00:21:08;99798.16;;;19.49;74.27
49102;BME280;34913;47.520;19.186;2022-08-02T00:23:34;99784.38;;;19.38;74.00
49102;BME280;34913;47.520;19.186;2022-08-02T00:25:59;99795.13;;;19.38;74.22
49102;BME280;34913;47.520;19.186;2022-08-02T00:28:25;99787.16;;;19.30;75.56
49102;BME280;34913;47.520;19.186;2022-08-02T00:30:51;99795.44;;;19.28;75.50
49102;BME280;34913;47.520;19.186;2022-08-02T00:33:17;99784.59;;;19.21;75.36
49102;BME280;34913;47.520;19.186;2022-08-02T00:35:42;99785.88;;;19.25;75.39
49102;BME280;34913;47.520;19.186;2022-08-02T00:38:11;99792.00;;;19.19;75.99
49102;BME280;34913;47.520;19.186;2022-08-02T00:40:37;99791.94;;;19.13;76.40
49102;BME280;34913;47.520;19.186;2022-08-02T00:43:08;99781.06;;;19.06;76.52
49102;BME280;34913;47.520;19.186;2022-08-02T00:45:36;99786.47;;;19.06;76.45
49102;BME280;34913;47.520;19.186;2022-08-02T00:48:03;99776.06;;;19.03;77.00
49102;BME280;34913;47.520;19.186;2022-08-02T00:50:29;99782.00;;;18.99;76.87
49102;BME280;34913;47.520;19.186;2022-08-02T00:52:55;99789.69;;;19.02;77.05
49102;BME280;34913;47.520;19.186;2022-08-02T00:55:21;99796.28;;;18.99;77.24
49102;BME280;34913;47.520;19.186;2022-08-02T00:57:47;99804.25;;;18.92;77.75
49102;BME280;34913;47.520;19.186;2022-08-02T01:00:13;99806.50;;;18.89;78.49
49102;BME280;34913;47.520;19.186;2022-08-02T01:02:39;99810.03;;;18.89;78.02
49102;BME280;34913;47.520;19.186;2022-08-02T01:05:05;99808.72;;;19.00;77.33
49102;BME280;34913;47.520;19.186;2022-08-02T01:07:30;99804.16;;;18.86;77.86
49102;BME280;34913;47.520;19.186;2022-08-02T01:09:56;99806.84;;;18.86;77.71
49102;BME280;34913;47.520;19.186;2022-08-02T01:12:22;99804.53;;;18.83;78.42
49102;BME280;34913;47.520;19.186;2022-08-02T01:14:52;99802.59;;;18.77;78.79
49102;BME280;34913;47.520;19.186;2022-08-02T01:23:34;99813.41;;;18.68;79.20
49102;BME280;34913;47.520;19.186;2022-08-02T01:33:59;99811.19;;;18.72;78.70
49102;BME280;34913;47.520;19.186;2022-08-02T01:36:30;99813.66;;;18.59;79.59
49102;BME280;34913;47.520;19.186;2022-08-02T01:38:58;99818.94;;;18.52;79.75
49102;BME280;34913;47.520;19.186;2022-08-02T01:41:25;99805.38;;;18.46;79.96
49102;BME280;34913;47.520;19.186;2022-08-02T01:43:57;99804.91;;;18.42;80.34
49102;BME280;34913;47.520;19.186;2022-08-02T01:46:24;99801.28;;;18.35;80.85
49102;BME280;34913;47.520;19.186;2022-08-02T01:48:53;99783.56;;;18.26;80.53
49102;BME280;34913;47.520;19.186;2022-08-02T01:51:20;99796.63;;;18.29;80.57
49102;BME280;34913;47.520;19.186;2022-08-02T01:54:08;99793.94;;;18.29;80.80
49102;BME280;34913;47.520;19.186;2022-08-02T01:56:36;99806.00;;;18.33;80.16
49102;BME280;34913;47.520;19.186;2022-08-02T01:59:04;99810.53;;;18.32;80.05
49102;BME280;34913;47.520;19.186;2022-08-02T02:01:33;99812.38;;;18.32;79.77
49102;BME280;34913;47.520;19.186;2022-08-02T02:04:01;99816.84;;;18.39;79.47
49102;BME280;34913;47.520;19.186;2022-08-02T02:06:27;99807.75;;;18.26;79.12
49102;BME280;34913;47.520;19.186;2022-08-02T02:08:53;99821.28;;;18.32;79.20
49102;BME280;34913;47.520;19.186;2022-08-02T02:11:20;99821.84;;;18.28;78.81
49102;BME280;34913;47.520;19.186;2022-08-02T02:13:46;99818.50;;;18.26;78.84
49102;BME280;34913;47.520;19.186;2022-08-02T02:16:14;99825.59;;;18.19;79.06
49102;BME280;34913;47.520;19.186;2022-08-02T02:18:41;99831.69;;;18.12;79.93
49102;BME280;34913;47.520;19.186;2022-08-02T02:21:08;99839.56;;;18.14;80.48
49102;BME280;34913;47.520;19.186;2022-08-02T02:23:34;99834.00;;;18.16;80.85
49102;BME280;34913;47.520;19.186;2022-08-02T02:26:02;99836.88;;;18.14;81.53
49102;BME280;34913;47.520;19.186;2022-08-02T02:28:30;99836.22;;;18.12;81.73
49102;BME280;34913;47.520;19.186;2022-08-02T02:31:06;99835.41;;;18.11;81.61
49102;BME280;34913;47.520;19.186;2022-08-02T02:33:36;99839.94;;;18.11;81.91
49102;BME280;34913;47.520;19.186;2022-08-02T02:36:04;99841.59;;;18.12;81.64
49102;BME280;34913;47.520;19.186;2022-08-02T02:38:31;99848.94;;;18.18;81.65
49102;BME280;34913;47.520;19.186;2022-08-02T02:40:59;99852.16;;;18.13;82.16
49102;BME280;34913;47.520;19.186;2022-08-02T02:43:30;99848.31;;;18.08;82.10
49102;BME280;34913;47.520;19.186;2022-08-02T02:45:58;99857.84;;;18.19;81.76
49102;BME280;34913;47.520;19.186;2022-08-02T02:48:24;99850.38;;;18.06;82.42
49102;BME280;34913;47.520;19.186;2022-08-02T02:50:51;99852.03;;;18.07;82.24
49102;BME280;34913;47.520;19.186;2022-08-02T02:53:18;99849.41;;;17.99;82.97
49102;BME280;34913;47.520;19.186;2022-08-02T02:55:44;99858.53;;;17.90;83.10
49102;BME280;34913;47.520;19.186;2022-08-02T02:58:10;99858.34;;;17.91;83.25
49102;BME280;34913;47.520;19.186;2022-08-02T03:00:37;99865.88;;;17.96;83.57
49102;BME280;34913;47.520;19.186;2022-08-02T03:03:21;99862.88;;;17.91;84.14
49102;BME280;34913;47.520;19.186;2022-08-02T03:05:46;99865.28;;;17.85;84.07
49102;BME280;34913;47.520;19.186;2022-08-02T03:08:12;99857.22;;;17.85;84.40
49102;BME280;34913;47.520;19.186;2022-08-02T03:10:38;99861.22;;;17.90;84.49
49102;BME280;34913;47.520;19.186;2022-08-02T03:13:04;99847.78;;;17.90;85.07
49102;BME280;34913;47.520;19.186;2022-08-02T03:15:30;99850.78;;;17.95;85.29
49102;BME280;34913;47.520;19.186;2022-08-02T03:17:56;99837.19;;;17.96;84.85
49102;BME280;34913;47.520;19.186;2022-08-02T03:20:22;99837.38;;;17.95;85.07
49102;BME280;34913;47.520;19.186;2022-08-02T03:22:48;99838.00;;;17.97;85.14
49102;BME280;34913;47.520;19.186;2022-08-02T03:25:15;99831.44;;;17.99;85.03
49102;BME280;34913;47.520;19.186;2022-08-02T03:27:40;99825.59;;;17.96;84.31
49102;BME280;34913;47.520;19.186;2022-08-02T03:30:08;99822.09;;;17.95;83.88
49102;BME280;34913;47.520;19.186;2022-08-02T03:32:35;99820.69;;;17.99;83.34
49102;BME280;34913;47.520;19.186;2022-08-02T03:35:02;99825.47;;;17.89;82.60
49102;BME280;34913;47.520;19.186;2022-08-02T03:37:29;99832.31;;;17.92;83.12
49102;BME280;34913;47.520;19.186;2022-08-02T03:39:56;99842.38;;;17.98;83.07
49102;BME280;34913;47.520;19.186;2022-08-02T03:42:22;99848.38;;;18.00;82.24
49102;BME280;34913;47.520;19.186;2022-08-02T03:44:49;99843.00;;;18.00;81.42
49102;BME280;34913;47.520;19.186;2022-08-02T03:47:17;99847.88;;;18.04;80.53
49102;BME280;34913;47.520;19.186;2022-08-02T03:49:43;99860.91;;;18.07;80.84
49102;BME280;34913;47.520;19.186;2022-08-02T03:52:09;99862.44;;;18.10;81.00
49102;BME280;34913;47.520;19.186;2022-08-02T03:54:36;99858.41;;;18.06;80.76
49102;BME280;34913;47.520;19.186;2022-08-02T03:57:04;99863.09;;;18.12;80.65
49102;BME280;34913;47.520;19.186;2022-08-02T03:59:39;99864.88;;;18.20;80.64
49102;BME280;34913;47.520;19.186;2022-08-02T04:02:06;99860.22;;;18.13;80.47
49102;BME280;34913;47.520;19.186;2022-08-02T04:04:31;99863.22;;;18.19;81.16
49102;BME280;34913;47.520;19.186;2022-08-02T04:06:56;99855.03;;;18.12;80.58
49102;BME280;34913;47.520;19.186;2022-08-02T04:09:22;99872.75;;;18.21;81.18
49102;BME280;34913;47.520;19.186;2022-08-02T04:11:47;99867.56;;;18.20;81.12
49102;BME280;34913;47.520;19.186;2022-08-02T04:14:13;99873.06;;;18.26;81.09
49102;BME280;34913;47.520;19.186;2022-08-02T04:16:42;99876.94;;;18.24;81.09
49102;BME280;34913;47.520;19.186;2022-08-02T04:19:14;99869.69;;;18.24;80.90
49102;BME280;34913;47.520;19.186;2022-08-02T04:21:42;99872.69;;;18.29;80.72
49102;BME280;34913;47.520;19.186;2022-08-02T04:24:10;99878.44;;;18.26;80.84
49102;BME280;34913;47.520;19.186;2022-08-02T04:26:37;99880.94;;;18.28;80.69
49102;BME280;34913;47.520;19.186;2022-08-02T04:29:03;99883.25;;;18.31;81.40
49102;BME280;34913;47.520;19.186;2022-08-02T04:31:30;99887.41;;;18.41;81.28
49102;BME280;34913;47.520;19.186;2022-08-02T04:33:56;99893.94;;;18.62;80.89
49102;BME280;34913;47.520;19.186;2022-08-02T04:36:22;99892.63;;;18.95;79.48
49102;BME280;34913;47.520;19.186;2022-08-02T04:38:48;99895.47;;;19.32;76.82
49102;BME280;34913;47.520;19.186;2022-08-02T04:41:14;99902.88;;;19.74;73.07
49102;BME280;34913;47.520;19.186;2022-08-02T04:43:40;99897.78;;;20.15;70.89
49102;BME280;34913;47.520;19.186;2022-08-02T04:46:05;99895.94;;;20.58;69.64
49102;BME280;34913;47.520;19.186;2022-08-02T04:48:31;99875.28;;;20.94;66.44
49102;BME280;34913;47.520;19.186;2022-08-02T04:50:56;99893.56;;;21.67;64.69
49102;BME280;34913;47.520;19.186;2022-08-02T04:53:22;99892.72;;;22.15;62.58
49102;BME280;34913;47.520;19.186;2022-08-02T04:55:48;99882.59;;;22.56;61.78
49102;BME280;34913;47.520;19.186;2022-08-02T04:58:13;99884.66;;;23.14;59.23
49102;BME280;34913;47.520;19.186;2022-08-02T05:00:39;99893.44;;;23.09;59.61
49102;BME280;34913;47.520;19.186;2022-08-02T05:03:04;99890.66;;;23.29;58.89
49102;BME280;34913;47.520;19.186;2022-08-02T05:05:30;99889.75;;;23.68;58.20
49102;BME280;34913;47.520;19.186;2022-08-02T05:07:55;99899.53;;;24.14;56.79
49102;BME280;34913;47.520;19.186;2022-08-02T05:10:21;99899.69;;;24.26;55.79
49102;BME280;34913;47.520;19.186;2022-08-02T05:12:47;99901.94;;;24.36;55.22
49102;BME280;34913;47.520;19.186;2022-08-02T05:15:13;99903.34;;;24.45;54.20
49102;BME280;34913;47.520;19.186;2022-08-02T05:17:41;99905.47;;;24.43;55.17
49102;BME280;34913;47.520;19.186;2022-08-02T05:20:06;99905.53;;;24.61;52.68
49102;BME280;34913;47.520;19.186;2022-08-02T05:22:32;99899.38;;;24.72;53.61
49102;BME280;34913;47.520;19.186;2022-08-02T05:24:57;99903.63;;;24.87;52.71
49102;BME280;34913;47.520;19.186;2022-08-02T05:27:23;99890.06;;;25.12;50.57
49102;BME280;34913;47.520;19.186;2022-08-02T05:29:49;99901.25;;;25.58;50.03
49102;BME280;34913;47.520;19.186;2022-08-02T05:32:16;99909.00;;;25.80;49.06
49102;BME280;34913;47.520;19.186;2022-08-02T05:34:42;99919.19;;;25.84;50.05
49102;BME280;34913;47.520;19.186;2022-08-02T05:37:07;99914.19;;;25.81;49.00
49102;BME280;34913;47.520;19.186;2022-08-02T05:39:33;99920.81;;;25.67;50.28
49102;BME280;34913;47.520;19.186;2022-08-02T05:41:58;99925.44;;;25.48;50.21
49102;BME280;34913;47.520;19.186;2022-08-02T05:44:24;99937.72;;;25.51;51.33
49102;BME280;34913;47.520;19.186;2022-08-02T05:46:49;99933.69;;;25.78;50.82
49102;BME280;34913;47.520;19.186;2022-08-02T05:49:14;99953.31;;;25.99;49.67
49102;BME280;34913;47.520;19.186;2022-08-02T05:51:51;99948.84;;;26.04;49.42
49102;BME280;34913;47.520;19.186;2022-08-02T05:54:30;99952.28;;;26.00;48.85
49102;BME280;34913;47.520;19.186;2022-08-02T05:57:05;99950.91;;;26.09;48.13
49102;BME280;34913;47.520;19.186;2022-08-02T05:59:47;99949.03;;;26.21;48.55
49102;BME280;34913;47.520;19.186;2022-08-02T06:02:28;99946.53;;;26.08;47.03
49102;BME280;34913;47.520;19.186;2022-08-02T06:05:03;99946.59;;;26.61;46.78
49102;BME280;34913;47.520;19.186;2022-08-02T06:07:34;99949.06;;;26.51;47.27
49102;BME280;34913;47.520;19.186;2022-08-02T06:10:03;99950.81;;;26.46;46.52
49102;BME280;34913;47.520;19.186;2022-08-02T06:12:31;99947.69;;;26.60;46.66
49102;BME280;34913;47.520;19.186;2022-08-02T06:14:58;99944.59;;;26.57;45.92
49102;BME280;34913;47.520;19.186;2022-08-02T06:17:24;99957.69;;;26.78;45.88
49102;BME280;34913;47.520;19.186;2022-08-02T06:19:53;99954.03;;;26.96;46.96
49102;BME280;34913;47.520;19.186;2022-08-02T06:22:24;99960.97;;;27.10;46.93
49102;BME280;34913;47.520;19.186;2022-08-02T06:24:51;99947.06;;;27.47;46.58
49102;BME280;34913;47.520;19.186;2022-08-02T06:27:19;99956.44;;;27.74;44.50
49102;BME280;34913;47.520;19.186;2022-08-02T06:29:48;99960.53;;;28.00;43.82
49102;BME280;34913;47.520;19.186;2022-08-02T06:32:17;99963.56;;;28.16;43.18
49102;BME280;34913;47.520;19.186;2022-08-02T06:34:43;99965.03;;;28.06;43.20
49102;BME280;34913;47.520;19.186;2022-08-02T06:39:48;99962.00;;;28.60;41.69
49102;BME280;34913;47.520;19.186;2022-08-02T06:42:40;99960.75;;;28.68;41.61
49102;BME280;34913;47.520;19.186;2022-08-02T06:45:08;99965.09;;;28.97;41.21
49102;BME280;34913;47.520;19.186;2022-08-02T06:47:34;99957.25;;;29.01;39.93
49102;BME280;34913;47.520;19.186;2022-08-02T06:49:59;99974.13;;;29.14;40.49
49102;BME280;34913;47.520;19.186;2022-08-02T06:52:27;99970.81;;;29.29;40.63
49102;BME280;34913;47.520;19.186;2022-08-02T06:54:54;99972.09;;;29.60;39.19
49102;BME280;34913;47.520;19.186;2022-08-02T06:57:20;99968.25;;;29.56;38.59
49102;BME280;34913;47.520;19.186;2022-08-02T06:59:45;99959.53;;;29.81;38.25
49102;BME280;34913;47.520;19.186;2022-08-02T07:02:11;99965.38;;;29.68;37.35
49102;BME280;34913;47.520;19.186;2022-08-02T07:04:36;99952.47;;;30.07;38.46
49102;BME280;34913;47.520;19.186;2022-08-02T07:07:02;99959.25;;;30.21;35.50
49102;BME280;34913;47.520;19.186;2022-08-02T07:09:27;99956.63;;;30.10;34.55
49102;BME280;34913;47.520;19.186;2022-08-02T07:11:53;99952.00;;;30.10;35.70
49102;BME280;34913;47.520;19.186;2022-08-02T07:14:18;99948.53;;;30.20;37.16
49102;BME280;34913;47.520;19.186;2022-08-02T07:16:44;99959.94;;;30.34;33.58
49102;BME280;34913;47.520;19.186;2022-08-02T07:19:09;99957.38;;;30.27;34.99
49102;BME280;34913;47.520;19.186;2022-08-02T07:21:35;99961.59;;;30.35;33.29
49102;BME280;34913;47.520;19.186;2022-08-02T07:24:00;99968.91;;;30.56;33.72
49102;BME280;34913;47.520;19.186;2022-08-02T07:26:26;99958.69;;;30.46;34.58
49102;BME280;34913;47.520;19.186;2022-08-02T07:28:51;99955.78;;;30.58;33.24
49102;BME280;34913;47.520;19.186;2022-08-02T07:31:19;99964.63;;;30.65;33.24
49102;BME280;34913;47.520;19.186;2022-08-02T07:33:44;99954.66;;;30.81;32.91
49102;BME280;34913;47.520;19.186;2022-08-02T07:36:10;99955.09;;;31.00;33.83
49102;BME280;34913;47.520;19.186;2022-08-02T07:38:35;99954.88;;;31.06;32.96
49102;BME280;34913;47.520;19.186;2022-08-02T07:41:01;99947.16;;;31.03;33.28
49102;BME280;34913;47.520;19.186;2022-08-02T07:43:26;99947.34;;;31.24;33.92
49102;BME280;34913;47.520;19.186;2022-08-02T07:45:51;99945.28;;;31.46;32.35
49102;BME280;34913;47.520;19.186;2022-08-02T07:48:17;99948.06;;;31.51;32.81
49102;BME280;34913;47.520;19.186;2022-08-02T07:50:42;99951.69;;;31.62;31.43
49102;BME280;34913;47.520;19.186;2022-08-02T07:53:08;99951.06;;;31.50;31.46
49102;BME280;34913;47.520;19.186;2022-08-02T07:55:33;99933.22;;;31.10;31.34
49102;BME280;34913;47.520;19.186;2022-08-02T07:57:59;99950.97;;;31.29;31.37
49102;BME280;34913;47.520;19.186;2022-08-02T08:00:24;99935.59;;;31.33;32.15
49102;BME280;34913;47.520;19.186;2022-08-02T08:02:49;99955.44;;;31.46;31.64
49102;BME280;34913;47.520;19.186;2022-08-02T08:05:15;99943.94;;;31.49;32.36
49102;BME280;34913;47.520;19.186;2022-08-02T08:07:40;99947.63;;;31.70;31.19
49102;BME280;34913;47.520;19.186;2022-08-02T08:10:06;99944.88;;;31.75;30.43
49102;BME280;34913;47.520;19.186;2022-08-02T08:12:32;99942.94;;;31.70;31.21
49102;BME280;34913;47.520;19.186;2022-08-02T08:14:58;99947.38;;;31.76;30.04
49102;BME280;34913;47.520;19.186;2022-08-02T08:17:23;99948.06;;;31.51;29.89
49102;BME280;34913;47.520;19.186;2022-08-02T08:19:49;99947.59;;;31.64;30.94
49102;BME280;34913;47.520;19.186;2022-08-02T08:22:14;99956.00;;;31.95;31.42
49102;BME280;34913;47.520;19.186;2022-08-02T08:24:40;99957.63;;;31.96;31.75
49102;BME280;34913;47.520;19.186;2022-08-02T08:27:05;99957.69;;;32.11;29.98
49102;BME280;34913;47.520;19.186;2022-08-02T08:29:30;99960.94;;;31.98;30.47
49102;BME280;34913;47.520;19.186;2022-08-02T08:31:56;99958.50;;;32.07;31.40
49102;BME280;34913;47.520;19.186;2022-08-02T08:34:21;99971.41;;;32.06;31.41
49102;BME280;34913;47.520;19.186;2022-08-02T08:36:48;99970.63;;;32.16;31.18
49102;BME280;34913;47.520;19.186;2022-08-02T08:39:14;99962.34;;;32.11;30.59
49102;BME280;34913;47.520;19.186;2022-08-02T08:41:42;99967.28;;;32.04;29.91
49102;BME280;34913;47.520;19.186;2022-08-02T08:44:11;99965.06;;;32.01;29.96
49102;BME280;34913;47.520;19.186;2022-08-02T08:46:37;99960.38;;;31.96;29.66
49102;BME280;34913;47.520;19.186;2022-08-02T08:49:06;99965.63;;;32.03;30.45
49102;BME280;34913;47.520;19.186;2022-08-02T08:51:37;99968.72;;;32.16;29.60
49102;BME280;34913;47.520;19.186;2022-08-02T08:54:06;99967.59;;;32.22;31.98
49102;BME280;34913;47.520;19.186;2022-08-02T08:56:34;99973.19;;;32.43;30.81
49102;BME280;34913;47.520;19.186;2022-08-02T08:59:02;99956.84;;;32.06;31.16
49102;BME280;34913;47.520;19.186;2022-08-02T09:01:28;99965.94;;;32.11;31.94
49102;BME280;34913;47.520;19.186;2022-08-02T09:03:54;99971.25;;;32.33;31.07
49102;BME280;34913;47.520;19.186;2022-08-02T09:06:19;99964.69;;;32.39;30.34
49102;BME280;34913;47.520;19.186;2022-08-02T09:08:45;99965.16;;;32.26;29.60
49102;BME280;34913;47.520;19.186;2022-08-02T09:11:15;99955.03;;;32.37;30.53
49102;BME280;34913;47.520;19.186;2022-08-02T09:13:48;99975.59;;;32.29;29.73
49102;BME280;34913;47.520;19.186;2022-08-02T09:16:15;99977.75;;;32.22;29.33
49102;BME280;34913;47.520;19.186;2022-08-02T09:18:43;99973.06;;;32.12;30.97
49102;BME280;34913;47.520;19.186;2022-08-02T09:21:09;99972.78;;;32.14;29.44
49102;BME280;34913;47.520;19.186;2022-08-02T09:23:36;99969.25;;;32.18;29.03
49102;BME280;34913;47.520;19.186;2022-08-02T09:26:05;99974.44;;;32.15;32.04
49102;BME280;34913;47.520;19.186;2022-08-02T09:28:35;99972.16;;;31.91;30.36
49102;BME280;34913;47.520;19.186;2022-08-02T09:31:23;99966.75;;;31.54;31.78
49102;BME280;34913;47.520;19.186;2022-08-02T09:33:53;99965.81;;;31.81;32.14
49102;BME280;34913;47.520;19.186;2022-08-02T09:36:20;99968.66;;;32.01;30.55
49102;BME280;34913;47.520;19.186;2022-08-02T09:39:02;99957.78;;;31.69;30.00
49102;BME280;34913;47.520;19.186;2022-08-02T09:41:30;99963.66;;;31.88;31.90
49102;BME280;34913;47.520;19.186;2022-08-02T09:43:56;99965.59;;;31.98;31.88
49102;BME280;34913;47.520;19.186;2022-08-02T09:46:27;99965.19;;;31.74;29.66
49102;BME280;34913;47.520;19.186;2022-08-02T09:49:04;99962.28;;;31.85;32.37
49102;BME280;34913;47.520;19.186;2022-08-02T09:51:50;99961.88;;;31.72;31.20
49102;BME280;34913;47.520;19.186;2022-08-02T09:54:20;99955.19;;;32.00;32.30
49102;BME280;34913;47.520;19.186;2022-08-02T09:56:48;99956.31;;;32.09;31.00
49102;BME280;34913;47.520;19.186;2022-08-02T09:59:15;99948.38;;;32.17;30.29
49102;BME280;34913;47.520;19.186;2022-08-02T10:01:43;99941.81;;;32.23;31.55
49102;BME280;34913;47.520;19.186;2022-08-02T10:04:11;99950.59;;;32.26;31.78
49102;BME280;34913;47.520;19.186;2022-08-02T10:06:38;99942.97;;;32.33;30.77
49102;BME280;34913;47.520;19.186;2022-08-02T10:09:09;99945.66;;;32.28;30.66
49102;BME280;34913;47.520;19.186;2022-08-02T10:11:34;99938.28;;;32.33;30.81
49102;BME280;34913;47.520;19.186;2022-08-02T10:14:05;99935.56;;;32.59;29.10
49102;BME280;34913;47.520;19.186;2022-08-02T10:16:33;99933.59;;;32.39;29.74
49102;BME280;34913;47.520;19.186;2022-08-02T10:19:00;99930.06;;;32.43;30.77
49102;BME280;34913;47.520;19.186;2022-08-02T10:21:31;99931.47;;;32.66;30.81
49102;BME280;34913;47.520;19.186;2022-08-02T10:24:09;99928.44;;;32.83;29.73
49102;BME280;34913;47.520;19.186;2022-08-02T10:26:38;99934.47;;;32.75;29.44
49102;BME280;34913;47.520;19.186;2022-08-02T10:29:03;99930.09;;;32.59;30.60
49102;BME280;34913;47.520;19.186;2022-08-02T10:31:36;99931.75;;;32.65;31.01
49102;BME280;34913;47.520;19.186;2022-08-02T10:34:07;99924.59;;;32.69;30.05
49102;BME280;34913;47.520;19.186;2022-08-02T10:36:36;99922.41;;;32.86;32.28
49102;BME280;34913;47.520;19.186;2022-08-02T10:39:04;99919.66;;;32.81;30.63
49102;BME280;34913;47.520;19.186;2022-08-02T10:44:05;99918.50;;;32.46;31.43
49102;BME280;34913;47.520;19.186;2022-08-02T10:46:32;99915.97;;;32.09;29.81
49102;BME280;34913;47.520;19.186;2022-08-02T10:49:18;99916.25;;;32.18;31.09
49102;BME280;34913;47.520;19.186;2022-08-02T10:56:57;99903.44;;;32.64;29.90
49102;BME280;34913;47.520;19.186;2022-08-02T10:59:31;99906.16;;;32.54;31.39
49102;BME280;34913;47.520;19.186;2022-08-02T11:01:59;99910.31;;;32.72;31.50
49102;BME280;34913;47.520;19.186;2022-08-02T11:07:20;99905.91;;;32.56;31.97
49102;BME280;34913;47.520;19.186;2022-08-02T11:09:49;99901.22;;;32.61;30.94
49102;BME280;34913;47.520;19.186;2022-08-02T11:12:19;99899.31;;;32.67;30.81
49102;BME280;34913;47.520;19.186;2022-08-02T11:14:57;99899.31;;;32.72;31.25
49102;BME280;34913;47.520;19.186;2022-08-02T11:17:23;99900.66;;;32.54;32.10
49102;BME280;34913;47.520;19.186;2022-08-02T11:22:33;99889.69;;;32.69;30.51
49102;BME280;34913;47.520;19.186;2022-08-02T11:27:54;99897.13;;;32.89;32.35
49102;BME280;34913;47.520;19.186;2022-08-02T11:30:20;99890.25;;;32.71;28.95
49102;BME280;34913;47.520;19.186;2022-08-02T11:32:46;99890.50;;;32.70;30.80
49102;BME280;34913;47.520;19.186;2022-08-02T11:35:12;99873.44;;;32.78;29.76
49102;BME280;34913;47.520;19.186;2022-08-02T11:37:40;99880.34;;;32.65;30.59
49102;BME280;34913;47.520;19.186;2022-08-02T11:40:08;99886.41;;;32.72;30.58
49102;BME280;34913;47.520;19.186;2022-08-02T11:42:37;99872.34;;;32.69;30.24
49102;BME280;34913;47.520;19.186;2022-08-02T11:45:05;99876.47;;;32.61;30.06
49102;BME280;34913;47.520;19.186;2022-08-02T11:47:31;99876.22;;;32.68;29.30
49102;BME280;34913;47.520;19.186;2022-08-02T11:50:07;99885.00;;;32.55;29.82
49102;BME280;34913;47.520;19.186;2022-08-02T11:52:34;99886.91;;;32.54;29.99
49102;BME280;34913;47.520;19.186;2022-08-02T11:55:00;99888.84;;;32.43;30.54
49102;BME280;34913;47.520;19.186;2022-08-02T11:57:26;99887.41;;;32.10;30.70
49102;BME280;34913;47.520;19.186;2022-08-02T11:59:54;99884.94;;;32.19;30.68
49102;BME280;34913;47.520;19.186;2022-08-02T12:02:27;99872.03;;;32.09;30.61
49102;BME280;34913;47.520;19.186;2022-08-02T12:04:58;99875.56;;;32.05;30.25
49102;BME280;34913;47.520;19.186;2022-08-02T12:07:28;99884.66;;;32.10;31.11
49102;BME280;34913;47.520;19.186;2022-08-02T12:09:58;99871.50;;;32.28;30.69
49102;BME280;34913;47.520;19.186;2022-08-02T12:12:24;99879.78;;;32.38;30.54
49102;BME280;34913;47.520;19.186;2022-08-02T12:14:50;99870.94;;;32.26;30.98
49102;BME280;34913;47.520;19.186;2022-08-02T12:17:22;99873.06;;;31.98;30.56
49102;BME280;34913;47.520;19.186;2022-08-02T12:20:06;99858.03;;;32.21;30.67
49102;BME280;34913;47.520;19.186;2022-08-02T12:22:32;99874.84;;;32.40;31.73
49102;BME280;34913;47.520;19.186;2022-08-02T12:25:22;99870.72;;;32.53;30.78
49102;BME280;34913;47.520;19.186;2022-08-02T12:27:48;99861.38;;;32.38;29.34
49102;BME280;34913;47.520;19.186;2022-08-02T12:30:16;99856.72;;;32.34;29.88
49102;BME280;34913;47.520;19.186;2022-08-02T12:32:43;99863.31;;;32.43;31.40
49102;BME280;34913;47.520;19.186;2022-08-02T12:35:11;99858.91;;;32.42;30.50
49102;BME280;34913;47.520;19.186;2022-08-02T12:37:39;99859.72;;;32.53;30.37
49102;BME280;34913;47.520;19.186;2022-08-02T12:40:25;99858.91;;;32.42;29.43
49102;BME280;34913;47.520;19.186;2022-08-02T12:43:02;99857.19;;;32.20;29.16
49102;BME280;34913;47.520;19.186;2022-08-02T12:45:32;99864.34;;;32.27;30.38
49102;BME280;34913;47.520;19.186;2022-08-02T12:47:59;99861.09;;;32.35;29.01
49102;BME280;34913;47.520;19.186;2022-08-02T12:50:28;99868.53;;;32.44;29.19
49102;BME280;34913;47.520;19.186;2022-08-02T12:55:33;99855.63;;;32.40;30.25
49102;BME280;34913;47.520;19.186;2022-08-02T12:58:03;99851.50;;;32.32;30.24
49102;BME280;34913;47.520;19.186;2022-08-02T13:00:31;99853.06;;;32.23;30.60
49102;BME280;34913;47.520;19.186;2022-08-02T13:02:58;99850.31;;;32.03;30.51
49102;BME280;34913;47.520;19.186;2022-08-02T13:05:25;99851.97;;;32.04;32.17
49102;BME280;34913;47.520;19.186;2022-08-02T13:07:51;99848.66;;;31.97;32.78
49102;BME280;34913;47.520;19.186;2022-08-02T13:10:17;99851.16;;;32.13;32.67
49102;BME280;34913;47.520;19.186;2022-08-02T13:12:43;99845.09;;;32.06;30.80
49102;BME280;34913;47.520;19.186;2022-08-02T13:15:09;99849.34;;;31.66;33.13
49102;BME280;34913;47.520;19.186;2022-08-02T13:17:35;99848.06;;;31.22;31.76
49102;BME280;34913;47.520;19.186;2022-08-02T13:20:01;99836.41;;;30.99;32.12
49102;BME280;34913;47.520;19.186;2022-08-02T13:22:26;99842.00;;;30.77;32.80
49102;BME280;34913;47.520;19.186;2022-08-02T13:24:52;99848.97;;;30.58;34.71
49102;BME280;34913;47.520;19.186;2022-08-02T13:27:18;99836.91;;;30.59;33.13
49102;BME280;34913;47.520;19.186;2022-08-02T13:29:44;99831.38;;;30.86;34.43